Time;durP1;ratioP1;P1;durP2;ratioP2;P2;SDS_P1;SDS_P2;PMS_P1;PMS_P2;Temp;Humidity;BMP_temperature;BMP_pressure;BME280_temperature;BME280_humidity;BME280_pressure;Samples;Min_cycle;Max_cycle;Signal;HPM_P1;HPM_P2
2022/11/24 00:00:05;;;;;;;19.43;9.30;;;;;6.10;95389.00;;;;8466594;28;20254;-77
2022/11/24 00:04:12;;;;;;;21.97;9.37;;;;;6.20;95397.00;;;;8466502;28;20224;-77
2022/11/24 00:08:44;;;;;;;26.03;10.00;;;;;6.20;95407.00;;;;8466684;28;20195;-77
2022/11/24 00:12:47;;;;;;;21.10;9.43;;;;;6.10;95403.00;;;;8464451;28;20305;-77
2022/11/24 00:16:50;;;;;;;20.93;9.77;;;;;6.10;95400.00;;;;8466427;28;20271;-76
2022/11/24 00:20:55;;;;;;;24.07;9.77;;;;;6.10;95397.00;;;;8465730;28;20206;-76
2022/11/24 00:25:29;;;;;;;19.67;9.37;;;;;6.10;95406.00;;;;8464932;28;20195;-76
2022/11/24 00:29:32;;;;;;;16.33;8.50;;;;;6.20;95419.00;;;;8465961;28;20268;-76
2022/11/24 00:33:35;;;;;;;16.77;7.80;;;;;6.20;95420.00;;;;8464702;28;20563;-77
2022/11/24 00:37:39;;;;;;;16.30;7.43;;;;;6.20;95424.00;;;;8464955;28;20220;-78
2022/11/24 00:42:14;;;;;;;16.77;8.43;;;;;6.20;95421.00;;;;8465253;28;20624;-78
2022/11/24 00:46:18;;;;;;;18.00;8.10;;;;;6.20;95431.00;;;;8464891;28;20246;-79
2022/11/24 00:50:21;;;;;;;13.70;6.97;;;;;6.20;95435.00;;;;8464656;28;20199;-78
2022/11/24 00:54:26;;;;;;;19.73;7.17;;;;;6.30;95443.00;;;;8465401;28;20229;-79
2022/11/24 00:58:30;;;;;;;12.88;6.82;;;;;6.30;95450.00;;;;8464318;28;20651;-78
2022/11/24 01:02:33;;;;;;;12.13;6.43;;;;;6.30;95451.00;;;;8464496;28;20198;-77
2022/11/24 01:06:37;;;;;;;15.60;7.13;;;;;6.40;95453.00;;;;8464289;28;20250;-77
2022/11/24 01:10:41;;;;;;;12.60;6.73;;;;;6.50;95462.00;;;;8464415;28;20247;-77
2022/11/24 01:14:44;;;;;;;13.90;7.07;;;;;6.50;95474.00;;;;8465089;28;20716;-77
2022/11/24 01:18:48;;;;;;;18.43;7.10;;;;;6.50;95470.00;;;;8469390;28;20663;-77
2022/11/24 01:23:25;;;;;;;17.07;7.03;;;;;6.60;95475.00;;;;8471963;28;20199;-77
2022/11/24 01:27:30;;;;;;;15.33;6.83;;;;;6.60;95473.00;;;;8472224;28;20272;-77
2022/11/24 01:31:35;;;;;;;15.93;6.90;;;;;6.70;95481.00;;;;8470353;28;20270;-82
2022/11/24 01:36:09;;;;;;;19.93;7.07;;;;;6.70;95486.00;;;;8471934;28;20241;-80
2022/11/24 01:40:13;;;;;;;15.87;6.27;;;;;6.80;95492.00;;;;8470694;28;20214;-77
2022/11/24 01:44:25;;;;;;;19.67;6.00;;;;;6.80;95505.00;;;;8470829;28;20232;-76
2022/11/24 01:49:03;;;;;;;23.93;6.33;;;;;6.80;95501.00;;;;8470601;27;20202;-77
2022/11/24 01:53:12;;;;;;;15.93;5.53;;;;;6.90;95503.00;;;;8470055;28;20236;-78
2022/11/24 01:57:38;;;;;;;16.27;5.20;;;;;7.00;95513.00;;;;8469925;28;20232;-78
2022/11/24 02:01:43;;;;;;;21.30;5.53;;;;;7.10;95530.00;;;;8469403;28;20248;-78
2022/11/24 02:06:19;;;;;;;15.00;4.77;;;;;7.10;95525.00;;;;8470192;28;20228;-77
2022/11/24 02:10:23;;;;;;;22.70;4.70;;;;;7.20;95527.00;;;;8470923;28;20207;-77
2022/11/24 02:14:27;;;;;;;22.57;4.17;;;;;7.10;95537.00;;;;8469886;28;20219;-79
2022/11/24 02:19:03;;;;;;;21.27;4.93;;;;;7.20;95544.00;;;;8470079;28;20195;-79
2022/11/24 02:23:15;;;;;;;19.70;4.23;;;;;7.30;95539.00;;;;8469541;28;20235;-79
2022/11/24 02:27:20;;;;;;;27.10;4.73;;;;;7.40;95543.00;;;;8469081;28;20248;-79
2022/11/24 02:31:23;;;;;;;18.57;4.20;;;;;7.40;95560.00;;;;8468578;28;20235;-79
2022/11/24 02:35:27;;;;;;;22.80;4.87;;;;;7.50;95558.00;;;;8470110;28;20218;-79
2022/11/24 02:40:01;;;;;;;21.37;4.33;;;;;7.50;95551.00;;;;8468922;28;20190;-78
2022/11/24 02:44:06;;;;;;;15.03;4.40;;;;;7.60;95554.00;;;;8469546;28;20254;-78
2022/11/24 02:48:40;;;;;;;22.93;5.10;;;;;7.60;95564.00;;;;8469234;28;20198;-78
2022/11/24 02:52:43;;;;;;;34.63;4.85;;;;;7.60;95575.00;;;;8468648;28;20195;-79
2022/11/24 02:57:22;;;;;;;18.97;4.80;;;;;7.70;95579.00;;;;8469774;28;20235;-79
2022/11/24 03:01:26;;;;;;;20.83;4.13;;;;;7.70;95577.00;;;;8468306;28;20220;-78
2022/11/24 03:05:30;;;;;;;28.13;4.20;;;;;7.70;95587.00;;;;8468085;28;20249;-79
2022/11/24 03:09:33;;;;;;;21.93;4.27;;;;;7.70;95597.00;;;;8469458;28;20520;-79
2022/11/24 03:13:36;;;;;;;26.67;5.40;;;;;7.80;95593.00;;;;8468537;28;20231;-80
2022/11/24 03:18:12;;;;;;;18.70;4.20;;;;;7.80;95594.00;;;;8469000;28;20195;-81
2022/11/24 03:22:15;;;;;;;33.97;5.27;;;;;7.80;95600.00;;;;8468382;28;20195;-80
2022/11/24 03:26:20;;;;;;;20.70;4.83;;;;;7.80;95607.00;;;;8468298;28;20307;-81
2022/11/24 03:30:54;;;;;;;25.43;6.13;;;;;7.80;95611.00;;;;8466880;28;20206;-80
2022/11/24 03:35:32;;;;;;;25.80;5.23;;;;;7.80;95605.00;;;;8467336;28;20263;-81
2022/11/24 03:39:36;;;;;;;27.15;4.45;;;;;7.80;95618.00;;;;8466309;28;20191;-81
2022/11/24 03:44:10;;;;;;;23.67;4.80;;;;;7.80;95618.00;;;;8466516;27;20199;-81
2022/11/24 03:48:47;;;;;;;25.30;4.63;;;;;7.80;95627.00;;;;8468064;28;20202;-81
2022/11/24 03:53:26;;;;;;;21.40;4.30;;;;;7.90;95629.00;;;;8465886;28;20228;-81
2022/11/24 03:57:31;;;;;;;25.52;3.58;;;;;7.90;95627.00;;;;8466329;28;20203;-81
2022/11/24 04:02:06;;;;;;;19.20;3.80;;;;;7.90;95634.00;;;;8466876;28;20635;-80
2022/11/24 04:06:10;;;;;;;24.15;3.97;;;;;7.90;95637.00;;;;8466335;28;20187;-79
2022/11/24 04:10:13;;;;;;;26.17;3.83;;;;;7.90;95630.00;;;;8466217;28;20195;-79
2022/11/24 04:14:51;;;;;;;22.23;4.10;;;;;7.90;95633.00;;;;8466722;28;20222;-79
2022/11/24 04:18:55;;;;;;;25.35;3.42;;;;;7.90;95645.00;;;;8466559;28;20190;-79
2022/11/24 04:22:58;;;;;;;28.23;4.03;;;;;7.90;95643.00;;;;8465360;28;20190;-80
2022/11/24 04:27:01;;;;;;;20.13;4.27;;;;;8.00;95650.00;;;;8467265;28;20272;-79
2022/11/24 04:31:06;;;;;;;21.70;4.35;;;;;8.00;95650.00;;;;8465401;28;20203;-79
2022/11/24 04:35:40;;;;;;;25.67;3.87;;;;;7.90;95654.00;;;;8459873;28;20305;-81
2022/11/24 04:40:17;;;;;;;28.13;4.10;;;;;8.00;95666.00;;;;8451013;28;20195;-80
2022/11/24 04:44:21;;;;;;;20.53;3.50;;;;;8.00;95672.00;;;;8465254;28;20256;-77
2022/11/24 04:48:25;;;;;;;30.07;3.83;;;;;8.00;95675.00;;;;8465819;28;20198;-77
2022/11/24 04:52:59;;;;;;;28.52;4.13;;;;;8.00;95680.00;;;;8460452;28;20191;-77
2022/11/24 04:57:03;;;;;;;33.55;4.05;;;;;7.90;95686.00;;;;8465403;28;20227;-78
2022/11/24 05:01:09;;;;;;;29.60;3.80;;;;;7.90;95683.00;;;;8464715;28;20282;-79
2022/11/24 05:05:44;;;;;;;31.73;4.40;;;;;7.90;95696.00;;;;8466430;28;20224;-78
2022/11/24 05:14:08;;;;;;;33.27;6.10;;;;;7.90;95701.00;;;;8465104;28;20244;-79
2022/11/24 05:18:14;;;;;;;38.75;5.00;;;;;8.00;95702.00;;;;8463937;28;20226;-79
2022/11/24 05:22:18;;;;;;;26.20;4.63;;;;;7.90;95711.00;;;;8464685;28;20191;-80
2022/11/24 05:26:21;;;;;;;16.53;4.13;;;;;8.00;95709.00;;;;8464726;28;20681;-81
2022/11/24 05:30:59;;;;;;;24.85;4.30;;;;;8.00;95721.00;;;;8464443;28;20195;-81
2022/11/24 05:35:03;;;;;;;29.97;4.63;;;;;7.90;95728.00;;;;8463384;28;20215;-82
2022/11/24 05:39:08;;;;;;;25.33;5.87;;;;;7.90;95734.00;;;;8464352;28;20197;-79
2022/11/24 05:43:11;;;;;;;18.70;3.73;;;;;7.90;95742.00;;;;8463372;28;20681;-82
2022/11/24 05:47:15;;;;;;;22.30;3.47;;;;;7.90;95740.00;;;;8463959;28;20239;-81
2022/11/24 05:51:52;;;;;;;11.83;3.27;;;;;7.80;95753.00;;;;8461390;28;20190;-81
2022/11/24 05:55:56;;;;;;;12.95;3.60;;;;;7.70;95760.00;;;;8464337;28;20659;-81
2022/11/24 06:00:00;;;;;;;27.50;4.00;;;;;7.60;95763.00;;;;8465165;28;20573;-81
2022/11/24 06:04:03;;;;;;;25.00;3.90;;;;;7.60;95779.00;;;;8467007;28;20199;-81
2022/11/24 06:08:06;;;;;;;26.43;3.70;;;;;7.60;95775.00;;;;8469722;28;20202;-81
2022/11/24 06:12:12;;;;;;;15.73;3.43;;;;;7.60;95785.00;;;;8470759;28;20186;-81
2022/11/24 06:16:15;;;;;;;21.70;3.75;;;;;7.60;95794.00;;;;8470889;28;20623;-81
2022/11/24 06:20:19;;;;;;;19.15;3.22;;;;;7.70;95787.00;;;;8471070;28;20229;-81
2022/11/24 06:24:22;;;;;;;21.58;3.65;;;;;7.70;95802.00;;;;8469158;28;20194;-81
2022/11/24 06:28:58;;;;;;;11.53;3.47;;;;;7.70;95822.00;;;;8470540;28;20214;-82
2022/11/24 06:33:03;;;;;;;17.38;3.63;;;;;7.70;95811.00;;;;8470813;28;20216;-82
2022/11/24 06:37:07;;;;;;;17.10;3.40;;;;;7.60;95816.00;;;;8468967;28;20219;-81
2022/11/24 06:41:12;;;;;;;16.75;4.60;;;;;7.60;95802.00;;;;8470678;28;20532;-81
2022/11/24 06:45:52;;;;;;;19.03;3.90;;;;;7.70;95813.00;;;;8468459;28;20179;-81
2022/11/24 06:49:56;;;;;;;20.23;4.20;;;;;7.70;95818.00;;;;8469180;28;20293;-81
2022/11/24 06:54:00;;;;;;;16.63;5.27;;;;;7.60;95815.00;;;;8469579;28;20635;-82
2022/11/24 06:58:03;;;;;;;17.63;3.80;;;;;7.70;95825.00;;;;8469444;28;20247;-81
2022/11/24 07:02:09;;;;;;;22.73;3.87;;;;;7.70;95823.00;;;;8469040;28;20199;-81
2022/11/24 07:06:12;;;;;;;15.67;3.50;;;;;7.70;95819.00;;;;8468715;28;20191;-81
2022/11/24 07:10:51;;;;;;;21.00;3.77;;;;;7.70;95825.00;;;;8468455;28;20202;-81
2022/11/24 07:14:54;;;;;;;14.90;3.83;;;;;7.70;95828.00;;;;8466644;28;20214;-80
2022/11/24 07:18:59;;;;;;;25.30;4.37;;;;;7.60;95820.00;;;;8468374;28;20666;-81
2022/11/24 07:23:02;;;;;;;18.50;3.60;;;;;7.70;95815.00;;;;8468569;28;20228;-80
2022/11/24 07:27:05;;;;;;;13.47;3.27;;;;;7.60;95820.00;;;;8468992;28;20647;-81
2022/11/24 07:31:11;;;;;;;16.73;2.80;;;;;7.50;95820.00;;;;8467660;28;20581;-81
2022/11/24 07:35:47;;;;;;;13.60;3.03;;;;;7.50;95840.00;;;;8468023;28;20210;-81
2022/11/24 07:39:50;;;;;;;12.67;3.23;;;;;7.40;95848.00;;;;8468494;28;20252;-80
2022/11/24 07:43:54;;;;;;;15.63;3.40;;;;;7.40;95845.00;;;;8467685;28;20210;-81
2022/11/24 07:47:57;;;;;;;14.67;3.07;;;;;7.40;95854.00;;;;8467131;28;20489;-81
2022/11/24 07:52:33;;;;;;;6.85;2.40;;;;;7.30;95860.00;;;;8467022;28;20244;-80
2022/11/24 07:56:36;;;;;;;15.65;2.90;;;;;7.40;95863.00;;;;8466181;28;20223;-81
2022/11/24 08:00:39;;;;;;;18.97;3.00;;;;;7.40;95862.00;;;;8466713;28;20254;-81
2022/11/24 08:04:43;;;;;;;12.90;3.00;;;;;7.60;95861.00;;;;8467382;28;20206;-80
2022/11/24 08:08:47;;;;;;;10.77;3.40;;;;;7.80;95869.00;;;;8466993;28;20194;-81
2022/11/24 08:13:24;;;;;;;11.95;3.20;;;;;8.10;95872.00;;;;8467496;28;20202;-81
2022/11/24 08:17:28;;;;;;;16.60;3.30;;;;;8.40;95874.00;;;;8467096;28;20302;-81
2022/11/24 08:21:32;;;;;;;16.58;2.90;;;;;8.60;95872.00;;;;8466619;28;20186;-81
2022/11/24 08:25:37;;;;;;;6.97;3.83;;;;;8.70;95879.00;;;;8465747;28;20196;-80
2022/11/24 08:30:14;;;;;;;18.27;3.75;;;;;8.60;95874.00;;;;8466556;28;20656;-81
2022/11/24 08:34:18;;;;;;;10.93;3.83;;;;;8.50;95873.00;;;;8465681;28;20205;-81
2022/11/24 08:38:21;;;;;;;8.95;3.28;;;;;8.50;95879.00;;;;8466558;28;20218;-81
2022/11/24 08:42:25;;;;;;;13.15;3.65;;;;;8.60;95874.00;;;;8466735;28;20627;-81
2022/11/24 08:46:29;;;;;;;23.10;3.50;;;;;8.60;95875.00;;;;8465928;28;20195;-81
2022/11/24 08:50:34;;;;;;;9.07;3.67;;;;;8.60;95878.00;;;;8464850;28;20201;-81
2022/11/24 08:54:37;;;;;;;10.05;3.60;;;;;8.60;95883.00;;;;8466284;28;20198;-82
2022/11/24 08:58:42;;;;;;;11.07;3.00;;;;;8.70;95889.00;;;;8465581;28;20195;-81
2022/11/24 09:03:16;;;;;;;12.65;3.13;;;;;8.80;95888.00;;;;8465670;28;20566;-81
2022/11/24 09:07:20;;;;;;;14.02;3.33;;;;;9.00;95882.00;;;;8465025;28;20551;-81
2022/11/24 09:11:24;;;;;;;6.63;2.65;;;;;9.20;95888.00;;;;8465203;28;20198;-81
2022/11/24 09:15:29;;;;;;;5.70;2.60;;;;;9.20;95880.00;;;;8465969;28;20222;-81
2022/11/24 09:19:32;;;;;;;9.60;3.15;;;;;9.30;95887.00;;;;8465973;28;20194;-81
2022/11/24 09:29:12;;;;;;;9.30;2.83;;;;;9.20;95902.00;;;;8463954;28;20544;-81
2022/11/24 09:38:45;;;;;;;8.15;2.50;;;;;9.20;95896.00;;;;8465435;28;20224;-81
2022/11/24 09:42:59;;;;;;;14.05;2.75;;;;;9.20;95897.00;;;;8470879;28;20194;-81
2022/11/24 09:47:11;;;;;;;6.40;2.47;;;;;9.30;95886.00;;;;8472132;28;20197;-81
2022/11/24 09:51:15;;;;;;;13.30;3.35;;;;;9.40;95889.00;;;;8470765;28;20184;-81
2022/11/24 09:55:28;;;;;;;16.23;2.80;;;;;9.30;95899.00;;;;8471780;28;20266;-80
2022/11/24 09:59:32;;;;;;;16.33;3.17;;;;;9.40;95897.00;;;;8472095;28;20238;-80
2022/11/24 10:04:14;;;;;;;14.25;3.03;;;;;9.30;95886.00;;;;8470595;28;20648;-79
2022/11/24 10:08:31;;;;;;;23.13;3.80;;;;;9.40;95892.00;;;;8471055;28;20243;-79
2022/11/24 10:12:47;;;;;;;13.40;2.80;;;;;9.70;95896.00;;;;8470479;28;20186;-78
2022/11/24 10:16:57;;;;;;;11.32;3.05;;;;;9.90;95900.00;;;;8470553;28;20229;-78
2022/11/24 10:21:08;;;;;;;10.93;2.50;;;;;10.00;95915.00;;;;8470867;28;20190;-78
2022/11/24 10:25:42;;;;;;;15.77;2.80;;;;;10.10;95909.00;;;;8470904;28;20202;-78
2022/11/24 10:29:50;;;;;;;13.93;2.88;;;;;10.00;95902.00;;;;8470166;28;20602;-78
2022/11/24 10:33:53;;;;;;;15.45;3.13;;;;;9.90;95895.00;;;;8470268;28;20198;-78
2022/11/24 10:38:06;;;;;;;11.90;2.38;;;;;9.80;95913.00;;;;8469917;28;20226;-78
2022/11/24 10:42:15;;;;;;;10.05;2.63;;;;;9.50;95916.00;;;;8470590;28;20221;-77
2022/11/24 10:46:46;;;;;;;11.00;2.40;;;;;9.30;95914.00;;;;8470303;28;20558;-75
2022/11/24 10:50:54;;;;;;;5.40;1.88;;;;;9.10;95923.00;;;;8469838;28;20203;-75
2022/11/24 10:54:59;;;;;;;14.68;2.92;;;;;9.00;95927.00;;;;8469443;28;20240;-74
2022/11/24 10:59:38;;;;;;;7.38;1.90;;;;;8.90;95921.00;;;;8469324;28;20210;-74
2022/11/24 11:03:48;;;;;;;12.30;2.50;;;;;8.90;95915.00;;;;8468919;28;20230;-76
2022/11/24 11:08:14;;;;;;;10.75;2.20;;;;;8.90;95919.00;;;;8469867;28;20594;-76
2022/11/24 11:12:52;;;;;;;9.70;2.35;;;;;8.80;95919.00;;;;8469684;28;20202;-78
2022/11/24 11:16:57;;;;;;;6.13;1.80;;;;;8.80;95916.00;;;;8468599;28;20234;-77
2022/11/24 11:21:02;;;;;;;7.47;1.58;;;;;8.80;95921.00;;;;8469093;28;20281;-77
2022/11/24 11:25:20;;;;;;;5.32;1.90;;;;;8.70;95922.00;;;;8469276;28;20643;-77
2022/11/24 11:29:28;;;;;;;13.95;2.00;;;;;8.70;95922.00;;;;8467686;28;20659;-77
2022/11/24 11:33:56;;;;;;;5.23;1.57;;;;;8.70;95932.00;;;;8467420;28;20202;-77
2022/11/24 11:38:33;;;;;;;6.07;1.90;;;;;8.50;95929.00;;;;8466870;28;20217;-75
2022/11/24 11:42:42;;;;;;;12.57;2.08;;;;;8.50;95929.00;;;;8468205;28;20194;-76
2022/11/24 11:47:17;;;;;;;10.93;2.10;;;;;8.60;95940.00;;;;8467514;28;20202;-77
2022/11/24 11:51:36;;;;;;;11.23;1.80;;;;;8.60;95919.00;;;;8467572;28;20179;-76
2022/11/24 12:00:47;;;;;;;7.53;1.80;;;;;8.60;95934.00;;;;8466746;28;20284;-79
2022/11/24 12:05:18;;;;;;;4.77;1.47;;;;;8.60;95934.00;;;;8465047;28;20188;-77
2022/11/24 12:09:32;;;;;;;6.07;2.63;;;;;8.50;95934.00;;;;8467850;28;20223;-78
2022/11/24 12:14:06;;;;;;;3.88;1.80;;;;;8.50;95936.00;;;;8466709;28;20201;-69
2022/11/24 12:18:25;;;;;;;6.70;2.05;;;;;8.60;95947.00;;;;8466287;28;20206;-78
2022/11/24 12:22:57;;;;;;;9.77;2.33;;;;;8.60;95946.00;;;;8466221;28;20191;-75
2022/11/24 12:27:05;;;;;;;11.38;2.00;;;;;8.60;95946.00;;;;8466691;28;20680;-75
2022/11/24 12:31:41;;;;;;;7.28;2.35;;;;;8.60;95955.00;;;;8466742;28;20221;-77
2022/11/24 12:35:53;;;;;;;9.48;2.03;;;;;8.60;95949.00;;;;8465766;28;20191;-77
2022/11/24 12:40:05;;;;;;;9.73;2.33;;;;;8.60;95947.00;;;;8466322;28;20183;-77
2022/11/24 12:44:21;;;;;;;4.13;1.90;;;;;8.70;95949.00;;;;8465504;28;20228;-77
2022/11/24 12:48:53;;;;;;;11.82;2.17;;;;;8.80;95946.00;;;;8465732;28;20183;-76
2022/11/24 12:53:10;;;;;;;12.82;2.67;;;;;8.90;95946.00;;;;8465344;28;20222;-77
2022/11/24 12:57:19;;;;;;;11.10;2.00;;;;;9.20;95949.00;;;;8465754;28;20222;-77
2022/11/24 13:01:52;;;;;;;8.77;2.30;;;;;9.40;95953.00;;;;8465758;28;20223;-78
2022/11/24 13:06:00;;;;;;;11.50;2.03;;;;;9.50;95952.00;;;;8465081;28;20213;-77
2022/11/24 13:10:34;;;;;;;10.35;1.80;;;;;9.50;95959.00;;;;8465102;28;20229;-78
2022/11/24 13:14:58;;;;;;;6.32;1.77;;;;;9.60;95951.00;;;;8468961;28;20195;-78
2022/11/24 13:19:07;;;;;;;9.20;2.20;;;;;9.70;95964.00;;;;8472626;28;20667;-76
2022/11/24 13:23:23;;;;;;;4.82;2.00;;;;;9.80;95972.00;;;;8471418;28;20247;-76
2022/11/24 13:27:51;;;;;;;12.45;3.42;;;;;9.80;95976.00;;;;8473063;28;20254;-76
2022/11/24 13:31:55;;;;;;;8.48;2.08;;;;;9.70;95985.00;;;;8471604;28;20216;-76
2022/11/24 13:36:30;;;;;;;14.23;2.00;;;;;9.60;95991.00;;;;8472002;28;20255;-78
2022/11/24 13:40:42;;;;;;;2.25;1.38;;;;;9.50;95983.00;;;;8471590;28;20243;-78
2022/11/24 13:45:49;;;;;;;6.60;1.77;;;;;9.40;95994.00;;;;8472030;28;20187;-78
2022/11/24 13:49:53;;;;;;;6.10;1.90;;;;;9.30;95989.00;;;;8470584;28;20197;-78
2022/11/24 13:53:59;;;;;;;13.48;1.90;;;;;9.30;96006.00;;;;8470541;28;20208;-78
2022/11/24 13:58:27;;;;;;;6.78;1.90;;;;;9.40;96007.00;;;;8470365;28;20263;-79
2022/11/24 14:02:33;;;;;;;6.80;2.28;;;;;9.40;96009.00;;;;8471772;28;20583;-79
2022/11/24 14:06:41;;;;;;;7.22;1.70;;;;;9.50;96015.00;;;;8470585;28;20233;-79
2022/11/24 14:10:44;;;;;;;11.10;2.20;;;;;9.60;96017.00;;;;8470894;28;20230;-80
2022/11/24 14:14:49;;;;;;;4.80;1.60;;;;;9.50;96021.00;;;;8470732;28;20227;-79
2022/11/24 14:18:53;;;;;;;5.90;2.03;;;;;9.60;96020.00;;;;8470151;28;20598;-79
2022/11/24 14:22:59;;;;;;;8.50;1.83;;;;;9.50;96030.00;;;;8470296;28;20222;-79
2022/11/24 14:27:02;;;;;;;6.13;1.98;;;;;9.50;96035.00;;;;8466702;28;20305;-79
2022/11/24 14:31:09;;;;;;;4.15;2.35;;;;;9.40;96032.00;;;;8468257;28;20614;-80
2022/11/24 14:35:23;;;;;;;10.55;2.75;;;;;9.30;96036.00;;;;8469584;28;20191;-80
2022/11/24 14:39:49;;;;;;;5.78;1.83;;;;;9.10;96047.00;;;;8469063;28;20216;-80
2022/11/24 14:44:12;;;;;;;6.05;1.77;;;;;9.10;96045.00;;;;8469446;28;20535;-80
2022/11/24 14:48:18;;;;;;;6.38;1.75;;;;;9.10;96046.00;;;;8468396;28;20174;-79
2022/11/24 14:52:24;;;;;;;21.58;7.95;;;;;9.10;96058.00;;;;8469032;28;20235;-79
2022/11/24 14:56:29;;;;;;;461.40;259.02;;;;;9.00;96055.00;;;;8468888;28;20289;-80
2022/11/24 15:00:33;;;;;;;20.88;11.50;;;;;8.90;96065.00;;;;8468801;28;20578;-79
2022/11/24 15:05:07;;;;;;;25.13;12.83;;;;;8.80;96071.00;;;;8467974;28;20263;-80
2022/11/24 15:09:45;;;;;;;17.63;11.93;;;;;8.80;96079.00;;;;8468139;28;20191;-78
2022/11/24 15:14:32;;;;;;;9.55;5.57;;;;;8.70;96078.00;;;;8467771;28;20195;-80
2022/11/24 15:19:01;;;;;;;12.25;5.78;;;;;8.80;96088.00;;;;8467825;28;20561;-80
2022/11/24 15:23:40;;;;;;;5.78;3.03;;;;;8.80;96083.00;;;;8467042;28;20194;-80
2022/11/24 15:28:14;;;;;;;10.25;3.00;;;;;8.60;96077.00;;;;8467743;28;20219;-80
2022/11/24 15:32:54;;;;;;;8.75;2.75;;;;;8.60;96089.00;;;;8466942;28;20203;-80
2022/11/24 15:37:27;;;;;;;14.65;13.07;;;;;8.40;96091.00;;;;8466398;28;20198;-80
2022/11/24 15:42:03;;;;;;;8.15;4.13;;;;;8.30;96086.00;;;;8466576;28;20175;-79
2022/11/24 15:46:08;;;;;;;7.27;2.93;;;;;8.20;96092.00;;;;8467462;28;20282;-79
2022/11/24 15:50:43;;;;;;;30.20;10.83;;;;;8.20;96097.00;;;;8466918;28;20319;-79
2022/11/24 15:54:54;;;;;;;12.03;5.07;;;;;8.10;96104.00;;;;8466785;28;20202;-79
2022/11/24 15:58:57;;;;;;;109.37;33.93;;;;;8.00;96103.00;;;;8467001;28;20260;-79
2022/11/24 16:03:34;;;;;;;172.77;51.73;;;;;7.80;96119.00;;;;8466992;28;20624;-79
2022/11/24 16:07:50;;;;;;;422.60;117.60;;;;;7.70;96112.00;;;;8466816;28;20194;-79
2022/11/24 16:11:54;;;;;;;201.07;45.93;;;;;7.50;96127.00;;;;8466865;28;20195;-79
2022/11/24 16:15:57;;;;;;;610.03;166.73;;;;;7.50;96145.00;;;;8466838;28;20220;-79
2022/11/24 16:20:00;;;;;;;352.35;84.55;;;;;7.30;96139.00;;;;8465893;28;20301;-79
2022/11/24 16:24:06;;;;;;;1209.40;355.03;;;;;7.20;96144.00;;;;8466029;28;20217;-79
2022/11/24 16:28:44;;;;;;;47.33;15.27;;;;;7.10;96145.00;;;;8466042;28;20211;-79
2022/11/24 16:32:49;;;;;;;177.57;38.60;;;;;6.90;96150.00;;;;8466099;28;20632;-79
2022/11/24 16:37:26;;;;;;;7.50;2.77;;;;;6.70;96157.00;;;;8465608;28;20203;-79
2022/11/24 16:41:31;;;;;;;7.67;2.53;;;;;6.50;96160.00;;;;8466390;28;20195;-79
2022/11/24 16:45:34;;;;;;;10.40;3.07;;;;;6.30;96152.00;;;;8465977;28;20194;-79
2022/11/24 16:49:42;;;;;;;11.03;3.70;;;;;6.10;96161.00;;;;8465843;28;20189;-78
2022/11/24 16:54:19;;;;;;;7.07;1.93;;;;;5.80;96163.00;;;;8465296;28;20221;-78
2022/11/24 16:58:24;;;;;;;3.23;1.80;;;;;5.60;96157.00;;;;8465766;28;20560;-78
2022/11/24 17:02:28;;;;;;;5.53;2.40;;;;;5.40;96155.00;;;;8465574;28;20254;-78
2022/11/24 17:06:32;;;;;;;4.23;2.30;;;;;5.30;96167.00;;;;8465169;28;20240;-78
2022/11/24 17:11:06;;;;;;;10.33;4.00;;;;;5.20;96170.00;;;;8465085;28;20191;-79
2022/11/24 17:15:11;;;;;;;22.40;7.00;;;;;5.10;96165.00;;;;8465205;28;20270;-79
2022/11/24 17:19:34;;;;;;;16.73;5.37;;;;;5.10;96186.00;;;;8463929;28;20667;-79
2022/11/24 17:23:37;;;;;;;10.23;3.40;;;;;5.00;96185.00;;;;8464442;28;20197;-79
2022/11/24 17:28:14;;;;;;;9.40;4.00;;;;;5.20;96186.00;;;;8465208;28;20210;-79
2022/11/24 17:32:19;;;;;;;10.33;3.23;;;;;5.40;96176.00;;;;8465466;28;20528;-79
2022/11/24 17:36:56;;;;;;;10.57;3.73;;;;;5.50;96185.00;;;;8463946;28;20203;-79
2022/11/24 17:41:00;;;;;;;5.60;2.90;;;;;5.70;96185.00;;;;8464357;28;20268;-79
2022/11/24 17:45:34;;;;;;;13.17;4.67;;;;;5.90;96190.00;;;;8464617;28;20529;-79
2022/11/24 17:49:39;;;;;;;9.80;3.73;;;;;6.00;96185.00;;;;8464822;28;20201;-79
2022/11/24 17:53:44;;;;;;;10.80;3.97;;;;;6.10;96187.00;;;;8463710;28;20198;-79
2022/11/24 17:57:48;;;;;;;8.63;4.47;;;;;6.20;96195.00;;;;8464442;28;20225;-79
2022/11/24 18:01:51;;;;;;;13.53;4.27;;;;;6.30;96198.00;;;;8469193;28;20216;-78
2022/11/24 18:05:56;;;;;;;15.83;5.57;;;;;6.30;96195.00;;;;8469902;28;20186;-78
2022/11/24 18:09:59;;;;;;;20.80;9.83;;;;;6.40;96203.00;;;;8471320;28;20222;-78
2022/11/24 18:14:04;;;;;;;21.27;8.50;;;;;6.40;96190.00;;;;8470281;28;20738;-78
2022/11/24 18:18:07;;;;;;;15.63;6.83;;;;;6.50;96203.00;;;;8470223;28;20215;-78
2022/11/24 18:22:12;;;;;;;19.73;8.60;;;;;6.50;96203.00;;;;8469792;27;20210;-78
2022/11/24 18:26:17;;;;;;;10.90;5.57;;;;;6.50;96209.00;;;;8469750;28;20225;-79
2022/11/24 18:30:20;;;;;;;17.87;8.03;;;;;6.50;96215.00;;;;8470143;28;20251;-78
2022/11/24 18:34:24;;;;;;;22.97;9.50;;;;;6.50;96218.00;;;;8469349;28;20241;-78
2022/11/24 18:38:34;;;;;;;12.00;7.30;;;;;6.60;96216.00;;;;8470150;28;20652;-78
2022/11/24 18:42:37;;;;;;;9.70;4.37;;;;;6.60;96209.00;;;;8468963;28;20190;-78
2022/11/24 18:46:40;;;;;;;11.50;4.30;;;;;6.60;96202.00;;;;8469588;28;20191;-78
2022/11/24 18:50:44;;;;;;;11.67;4.60;;;;;6.60;96206.00;;;;8468142;28;20191;-78
2022/11/24 18:55:22;;;;;;;13.00;4.90;;;;;6.60;96219.00;;;;8469653;28;20665;-78
2022/11/24 18:59:25;;;;;;;17.23;5.20;;;;;6.60;96209.00;;;;8469077;28;20215;-78
2022/11/24 19:03:29;;;;;;;15.93;6.03;;;;;6.70;96215.00;;;;8469204;28;20252;-78
2022/11/24 19:07:32;;;;;;;11.43;4.43;;;;;6.70;96214.00;;;;8468195;28;20251;-78
2022/11/24 19:11:38;;;;;;;11.87;4.40;;;;;6.80;96228.00;;;;8467987;28;20689;-79
2022/11/24 19:15:42;;;;;;;8.93;4.97;;;;;6.80;96229.00;;;;8468084;28;20224;-79
2022/11/24 19:19:45;;;;;;;9.30;4.67;;;;;6.80;96230.00;;;;8468712;28;20214;-79
2022/11/24 19:23:48;;;;;;;12.30;4.33;;;;;6.80;96231.00;;;;8469139;28;20195;-79
2022/11/24 19:27:53;;;;;;;12.03;3.60;;;;;6.70;96237.00;;;;8465077;28;20218;-78
2022/11/24 19:31:56;;;;;;;12.67;4.43;;;;;6.60;96238.00;;;;8468185;28;20194;-79
2022/11/24 19:36:01;;;;;;;17.30;4.17;;;;;6.60;96230.00;;;;8460163;28;20195;-78
2022/11/24 19:40:35;;;;;;;12.27;4.17;;;;;6.70;96233.00;;;;8458354;28;20218;-78
2022/11/24 19:45:12;;;;;;;12.40;4.10;;;;;6.70;96246.00;;;;8464701;28;20187;-78
2022/11/24 19:49:16;;;;;;;5.90;3.90;;;;;6.70;96237.00;;;;8468015;28;20195;-78
2022/11/24 19:53:19;;;;;;;9.10;4.60;;;;;6.70;96240.00;;;;8467117;28;20642;-78
2022/11/24 19:57:23;;;;;;;11.00;5.10;;;;;6.70;96236.00;;;;8468000;28;20210;-79
2022/11/24 20:01:29;;;;;;;10.80;3.80;;;;;6.80;96239.00;;;;8466802;28;20682;-79
2022/11/24 20:05:34;;;;;;;8.23;4.60;;;;;6.80;96246.00;;;;8467241;28;20208;-79
2022/11/24 20:10:13;;;;;;;11.57;4.80;;;;;6.80;96245.00;;;;8467034;28;20198;-78
2022/11/24 20:14:44;;;;;;;11.47;3.90;;;;;6.80;96240.00;;;;8466519;28;20241;-79
2022/11/24 20:19:21;;;;;;;16.33;5.17;;;;;6.80;96246.00;;;;8466625;28;20636;-79
2022/11/24 20:23:59;;;;;;;15.80;4.77;;;;;6.80;96253.00;;;;8464658;28;20663;-78
2022/11/24 20:28:34;;;;;;;14.43;4.43;;;;;6.80;96245.00;;;;8466191;28;20310;-79
2022/11/24 20:33:10;;;;;;;11.93;4.70;;;;;6.80;96249.00;;;;8463682;28;20220;-78
2022/11/24 20:37:47;;;;;;;10.17;4.77;;;;;6.80;96254.00;;;;8464484;28;20252;-79
2022/11/24 20:42:26;;;;;;;17.23;5.60;;;;;6.80;96255.00;;;;8464086;28;20230;-78
2022/11/24 20:47:01;;;;;;;14.97;4.83;;;;;6.70;96252.00;;;;8464971;28;20194;-77
2022/11/24 20:51:37;;;;;;;21.30;8.27;;;;;6.50;96257.00;;;;8464861;28;20198;-79
2022/11/24 20:56:13;;;;;;;13.67;5.23;;;;;6.40;96257.00;;;;8464858;28;20446;-79
2022/11/24 21:00:47;;;;;;;11.17;5.10;;;;;6.30;96250.00;;;;8465257;28;20313;-79
2022/11/24 21:05:25;;;;;;;15.43;6.63;;;;;6.10;96249.00;;;;8464791;28;20202;-78
2022/11/24 21:09:59;;;;;;;16.83;7.93;;;;;6.00;96248.00;;;;8464209;28;20240;-77
2022/11/24 21:14:03;;;;;;;18.93;7.90;;;;;5.90;96257.00;;;;8463665;28;20190;-79
2022/11/24 21:18:06;;;;;;;19.50;8.50;;;;;5.90;96254.00;;;;8464395;28;20278;-78
2022/11/24 21:22:40;;;;;;;26.60;9.73;;;;;5.80;96259.00;;;;8464794;28;20226;-78
2022/11/24 21:26:46;;;;;;;21.10;8.30;;;;;5.90;96249.00;;;;8464142;28;20226;-78
2022/11/24 21:31:21;;;;;;;19.47;7.27;;;;;5.90;96256.00;;;;8464084;28;20636;-81
2022/11/24 21:35:55;;;;;;;19.30;7.67;;;;;5.70;96249.00;;;;8466498;28;20198;-80